• Join FlightAware (Why Join?)
  • Login
  • US Flag 
05:34PM EST


 

Airport Tracker/Info


-or-


 

Live Flight TrackerFlight Track Log ✈ GJS6221 ✈ 08-Oct-2013 ✈ KLGA - KSAV

Flight Track Log - Related Links

Times and Time Zones

All times are in EDT time to prevent confusion due to time zone crossing. See the GJS6221 flight status page for this flight to view local times or setup timezone preferences in your user account.

Time Position Orientation Groundspeed Altitude Reporting Facility
EDT Latitude Longitude Course Direction KTS MPH feet Rate Location/Type
02:25PM 40.8269 -73.8783 344° North 168 193 1,900  Level New York Center
02:26PM 40.8767 -73.8969 344° North 213 245 4,300 2,160 Climbing New York Center
02:27PM 40.9058 -73.9725 297° West 278 320 6,300 2,400 Climbing New York Center
02:28PM 40.8381 -74.0131 204° Southwest 297 342 9,100 2,340 Climbing New York Center
02:29PM 40.7561 -74.0367 192° South 307 353 11,000 1,440 Climbing New York Center
02:30PM 40.6742 -74.0628 194° South 353 406 12,000 480 Climbing New York Center
02:31PM 40.5606 -74.0983 193° South 358 412 12,000 360 Level New York Center
02:32PM 40.4850 -74.1192 192° South 381 438 12,800 1,380 Climbing New York Center
02:33PM 40.3736 -74.1519 193° South 375 432 14,800 1,860 Climbing New York Center
02:34PM 40.2856 -74.1747 191° South 375 432 16,600 1,500 Climbing New York Center
02:36PM 40.0911 -74.2275 192° South 393 452 19,100 1,440 Climbing Washington Center
02:37PM 39.9875 -74.2675 196° South 393 452 20,700 1,380 Climbing Washington Center
02:38PM 39.9008 -74.3528 217° Southwest 388 447 22,000 1,320 Climbing Washington Center
02:39PM 39.8100 -74.4408 217° Southwest 402 463 23,400 1,320 Climbing Washington Center
02:40PM 39.7319 -74.5472 226° Southwest 407 468 24,700 1,380 Climbing Washington Center
02:41PM 39.6514 -74.6508 225° Southwest 412 474 26,200 1,320 Climbing Washington Center
02:42PM 39.5708 -74.7542 225° Southwest 412 474 27,400 1,200 Climbing Washington Center
02:43PM 39.5008 -74.8467 226° Southwest 407 468 28,700 840 Climbing Washington Center
02:44PM 39.4075 -74.9228 212° Southwest 407 468 29,200 600 Climbing Washington Center
02:45PM 39.2994 -74.9800 202° Southwest 407 468 30,000 360 Climbing Washington Center
02:46PM 39.1914 -75.0400 203° Southwest 412 474 30,000  Level Washington Center
02:47PM 39.0894 -75.0969 203° Southwest 412 474 30,000  Level Washington Center
02:48PM 38.9853 -75.1564 204° Southwest 417 480 30,000  Level Washington Center
02:49PM 38.8836 -75.2131 203° Southwest 412 474 30,000  Level Washington Center
02:50PM 38.7794 -75.2719 204° Southwest 412 474 30,000  Level Washington Center
02:51PM 38.6775 -75.3311 204° Southwest 407 468 30,000  Level Washington Center
02:52PM 38.5753 -75.3844 202° Southwest 407 468 30,000  Level Washington Center
02:53PM 38.4733 -75.4406 203° Southwest 407 468 30,000  Level Washington Center
02:54PM 38.3711 -75.4964 203° Southwest 407 468 30,000  Level Washington Center
02:55PM 38.2669 -75.5811 213° Southwest 397 457 30,000  Level Washington Center
02:56PM 38.1772 -75.6658 217° Southwest 403 464 30,000  Level Washington Center
02:57PM 38.0875 -75.7528 217° Southwest 409 471 30,000  Level Washington Center
02:58PM 37.9978 -75.8342 216° Southwest 409 471 30,000  Level Washington Center
02:59PM 37.9078 -75.9181 216° Southwest 409 471 30,000  Level Washington Center
03:00PM 37.8283 -75.9942 217° Southwest 409 471 30,000  Level Washington Center
03:01PM 37.7300 -76.0906 218° Southwest 409 471 30,000  Level Washington Center
03:02PM 37.6506 -76.1583 214° Southwest 409 471 30,000  Level Washington Center
03:03PM 37.5603 -76.2414 216° Southwest 403 464 30,000  Level Washington Center
03:04PM 37.4722 -76.3244 217° Southwest 403 464 30,000  Level Washington Center
03:05PM 37.3819 -76.4047 215° Southwest 403 464 30,000  Level Washington Center
03:06PM 37.2939 -76.4872 217° Southwest 403 464 30,000  Level Washington Center
03:07PM 37.2036 -76.5669 215° Southwest 403 464 30,000  Level Washington Center
03:08PM 37.1089 -76.6544 216° Southwest 403 464 30,000  Level Washington Center
03:09PM 37.0206 -76.7364 217° Southwest 403 464 30,000  Level Washington Center
03:10PM 36.9300 -76.8158 215° Southwest 403 464 30,000  Level Washington Center
03:11PM 36.8417 -76.8972 216° Southwest 403 464 30,000  Level Washington Center
03:12PM 36.7531 -76.9789 216° Southwest 403 464 30,000  Level Washington Center
03:13PM 36.6644 -77.0600 216° Southwest 403 464 30,000  Level Washington Center
03:14PM 36.5758 -77.1439 217° Southwest 403 464 30,000  Level Washington Center
03:15PM 36.4869 -77.2272 217° Southwest 403 464 30,000  Level Washington Center
03:16PM 36.4003 -77.3081 217° Southwest 408 470 30,000  Level Washington Center
03:17PM 36.3178 -77.3861 217° Southwest 413 475 30,000  Level Washington Center
03:18PM 36.2247 -77.4767 218° Southwest 408 470 30,000  Level Washington Center
03:19PM 36.1336 -77.5594 216° Southwest 403 464 30,000  Level Washington Center
03:20PM 36.0467 -77.6419 218° Southwest 403 464 30,000  Level Washington Center
03:21PM 35.9556 -77.7217 215° Southwest 403 464 30,000  Level Washington Center
03:22PM 35.8625 -77.7989 214° Southwest 403 464 30,000  Level Washington Center
03:23PM 35.7672 -77.8703 211° Southwest 408 470 30,000  Level Washington Center
03:24PM 35.6719 -77.9444 212° Southwest 408 470 30,000  Level Washington Center
03:25PM 35.5764 -78.0181 212° Southwest 408 470 30,000  Level Washington Center
03:26PM 35.4833 -78.0892 212° Southwest 413 475 30,000  Level Washington Center
03:27PM 35.3856 -78.1653 212° Southwest 413 475 30,000  Level Washington Center
03:28PM 35.2922 -78.2386 213° Southwest 413 475 30,000  Level Washington Center
03:29PM 35.2158 -78.2997 213° Southwest 413 475 30,000  Level Washington Center
03:30PM 35.1136 -78.3800 213° Southwest 413 475 30,000  Level Washington Center
03:31PM 35.0181 -78.4528 212° Southwest 413 475 30,000  Level Washington Center
03:32PM 34.9225 -78.5228 211° Southwest 413 475 30,000  Level Washington Center
03:34PM 34.7256 -78.6767 213° Southwest 406 467 30,000  Level Jacksonville Center
03:35PM 34.6339 -78.7444 211° Southwest 406 467 30,000  Level Jacksonville Center
03:36PM 34.5403 -78.8169 213° Southwest 400 460 30,000  Level Jacksonville Center
03:37PM 34.4589 -78.8811 213° Southwest 400 460 30,000  Level Jacksonville Center
03:38PM 34.3675 -78.9533 213° Southwest 400 460 30,000  Level Jacksonville Center
03:39PM 34.2756 -79.0203 211° Southwest 395 455 30,000 -60 Level Jacksonville Center
03:40PM 34.1858 -79.0869 212° Southwest 395 455 29,900  Descending Jacksonville Center
03:41PM 34.0942 -79.1564 212° Southwest 395 455 30,000  Climbing Jacksonville Center
03:42PM 34.0131 -79.2425 221° Southwest 395 455 30,000  Level Jacksonville Center
03:43PM 33.9322 -79.3283 221° Southwest 395 455 30,000 -480 Level Jacksonville Center
03:44PM 33.8531 -79.4117 221° Southwest 395 455 29,100 -1,080 Descending Jacksonville Center
03:45PM 33.7658 -79.5050 222° Southwest 382 440 27,900 -780 Descending Jacksonville Center
03:46PM 33.6867 -79.5903 222° Southwest 387 445 27,600 -840 Descending Jacksonville Center
03:47PM 33.6075 -79.6706 220° Southwest 387 445 26,300 -1,500 Descending Jacksonville Center
03:48PM 33.5303 -79.7556 223° Southwest 387 445 24,600 -1,500 Descending Jacksonville Center
03:49PM 33.4531 -79.8356 221° Southwest 382 440 23,300 -1,800 Descending Jacksonville Center
03:50PM 33.3797 -79.9103 220° Southwest 377 434 21,100 -2,580 Descending Jacksonville Center
03:51PM 33.3103 -79.9844 222° Southwest 359 413 18,200 -2,580 Descending Jacksonville Center
03:52PM 33.2350 -80.0639 221° Southwest 359 413 16,000 -1,140 Descending Jacksonville Center
03:53PM 33.1697 -80.1331 222° Southwest 354 407 16,000 3,960 Level Jacksonville Center
03:54PM 33.1006 -80.2097 223° Southwest 336 387 24,000  Climbing Jacksonville Center
03:55PM 33.0308 -80.2786 220° Southwest 338 389 16,000 -4,020 Descending Jacksonville Center
03:56PM 32.9575 -80.3575 222° Southwest 351 404 16,000  Level Jacksonville Center
03:57PM 32.8775 -80.4364 220° Southwest 369 425 16,000  Level Jacksonville Center
03:58PM 32.8017 -80.5150 221° Southwest 374 430 16,000 -420 Level Jacksonville Center
03:59PM 32.7258 -80.5911 220° Southwest 374 430 15,200 -900 Descending Jacksonville Center
04:00PM 32.6542 -80.6669 222° Southwest 369 425 14,300 -900 Descending Jacksonville Center
04:01PM 32.5825 -80.7403 221° Southwest 358 412 13,400 -900 Descending Jacksonville Center
04:02PM 32.5233 -80.8206 229° Southwest 347 399 12,500 -900 Descending Jacksonville Center
04:03PM 32.4722 -80.8981 232° Southwest 320 368 11,600 -900 Descending Jacksonville Center
04:04PM 32.4278 -80.9803 237° Southwest 305 351 10,700 -960 Descending Jacksonville Center
04:05PM 32.3706 -81.0675 232° Southwest 300 345 9,700 -960 Descending Jacksonville Center
04:06PM 32.3217 -81.1497 235° Southwest 305 351 8,800 -1,440 Descending Jacksonville Center
04:07PM 32.2831 -81.2364 242° Southwest 295 339 6,900 -1,800 Descending Jacksonville Center
04:08PM 32.2528 -81.3106 244° Southwest 290 334 5,200 -1,320 Descending Jacksonville Center
04:09PM 32.2242 -81.3772 243° Southwest 259 298 4,300 -1,500 Descending Jacksonville Center
04:10PM 32.1789 -81.4125 213° Southwest 183 211 2,200 -2,100 Descending Jacksonville Center
04:12PM 32.1293 -81.2091 North  Level Estimated
04:19PM 32.1276 -81.2021 North  Level Estimated
04:20PM 32.1276 -81.2021 North  Level Estimated
04:21PM 32.1276 -81.2021 North  Level Estimated
04:22PM 32.1276 -81.2021 North  Level Estimated
04:23PM 32.1276 -81.2021 North  Level Estimated